sensor_id;sensor_type;location;lat;lon;timestamp;pressure;altitude;pressure_sealevel;temperature;humidity
14232;BME280;7200;52.194;9.900;2023-04-15T00:00:09;99654.91;;;9.71;100.00
14232;BME280;7200;52.194;9.900;2023-04-15T00:02:35;99663.22;;;9.62;100.00
14232;BME280;7200;52.194;9.900;2023-04-15T00:05:02;99666.91;;;9.58;100.00
14232;BME280;7200;52.194;9.900;2023-04-15T00:07:27;99670.00;;;9.47;100.00
14232;BME280;7200;52.194;9.900;2023-04-15T00:09:53;99682.97;;;9.51;100.00
14232;BME280;7200;52.194;9.900;2023-04-15T00:12:21;99687.69;;;9.64;100.00
14232;BME280;7200;52.194;9.900;2023-04-15T00:14:47;99654.81;;;9.33;100.00
14232;BME280;7200;52.194;9.900;2023-04-15T00:17:12;99679.47;;;9.51;100.00
14232;BME280;7200;52.194;9.900;2023-04-15T00:19:38;99682.84;;;9.54;100.00
14232;BME280;7200;52.194;9.900;2023-04-15T00:22:04;99639.88;;;9.73;100.00
14232;BME280;7200;52.194;9.900;2023-04-15T00:24:30;99649.53;;;9.53;100.00
14232;BME280;7200;52.194;9.900;2023-04-15T00:26:55;99647.38;;;9.43;100.00
14232;BME280;7200;52.194;9.900;2023-04-15T00:29:21;99647.38;;;9.43;100.00
14232;BME280;7200;52.194;9.900;2023-04-15T00:31:46;99641.84;;;9.28;100.00
14232;BME280;7200;52.194;9.900;2023-04-15T00:34:12;99653.97;;;9.32;100.00
14232;BME280;7200;52.194;9.900;2023-04-15T00:36:37;99656.06;;;9.24;100.00
14232;BME280;7200;52.194;9.900;2023-04-15T00:39:03;99686.09;;;9.41;100.00
14232;BME280;7200;52.194;9.900;2023-04-15T00:41:29;99689.03;;;9.53;100.00
14232;BME280;7200;52.194;9.900;2023-04-15T00:43:54;99670.22;;;9.42;100.00
14232;BME280;7200;52.194;9.900;2023-04-15T00:46:21;99666.13;;;9.35;100.00
14232;BME280;7200;52.194;9.900;2023-04-15T00:48:46;99661.22;;;9.27;100.00
14232;BME280;7200;52.194;9.900;2023-04-15T00:51:12;99690.94;;;9.50;100.00
14232;BME280;7200;52.194;9.900;2023-04-15T00:53:39;99671.28;;;9.38;100.00
14232;BME280;7200;52.194;9.900;2023-04-15T00:56:05;99645.53;;;9.45;100.00
14232;BME280;7200;52.194;9.900;2023-04-15T00:58:30;99646.59;;;9.41;100.00
14232;BME280;7200;52.194;9.900;2023-04-15T01:00:56;99652.34;;;9.49;100.00
14232;BME280;7200;52.194;9.900;2023-04-15T01:03:22;99706.50;;;10.33;100.00
14232;BME280;7200;52.194;9.900;2023-04-15T01:05:48;99619.03;;;9.68;100.00
14232;BME280;7200;52.194;9.900;2023-04-15T01:08:13;99633.31;;;9.44;100.00
14232;BME280;7200;52.194;9.900;2023-04-15T01:10:39;99627.91;;;9.26;100.00
14232;BME280;7200;52.194;9.900;2023-04-15T01:13:04;99642.91;;;9.24;100.00
14232;BME280;7200;52.194;9.900;2023-04-15T01:15:30;99647.59;;;9.38;100.00
14232;BME280;7200;52.194;9.900;2023-04-15T01:17:57;99666.97;;;9.56;100.00
14232;BME280;7200;52.194;9.900;2023-04-15T01:20:23;99636.69;;;9.27;100.00
14232;BME280;7200;52.194;9.900;2023-04-15T01:22:49;99661.25;;;9.46;100.00
14232;BME280;7200;52.194;9.900;2023-04-15T01:25:19;99669.06;;;9.68;100.00
14232;BME280;7200;52.194;9.900;2023-04-15T01:27:47;99637.06;;;9.38;100.00
14232;BME280;7200;52.194;9.900;2023-04-15T01:30:12;99647.31;;;9.44;100.00
14232;BME280;7200;52.194;9.900;2023-04-15T01:32:37;99649.41;;;9.36;100.00
14232;BME280;7200;52.194;9.900;2023-04-15T01:35:03;99677.22;;;9.62;100.00
14232;BME280;7200;52.194;9.900;2023-04-15T01:37:29;99651.72;;;9.44;100.00
14232;BME280;7200;52.194;9.900;2023-04-15T01:39:55;99670.28;;;9.80;100.00
14232;BME280;7200;52.194;9.900;2023-04-15T01:42:21;99633.16;;;9.66;100.00
14232;BME280;7200;52.194;9.900;2023-04-15T01:44:47;99639.78;;;9.55;100.00
14232;BME280;7200;52.194;9.900;2023-04-15T01:47:12;99667.53;;;9.83;100.00
14232;BME280;7200;52.194;9.900;2023-04-15T01:49:38;99606.91;;;9.25;100.00
14232;BME280;7200;52.194;9.900;2023-04-15T01:52:03;99623.75;;;9.21;100.00
14232;BME280;7200;52.194;9.900;2023-04-15T01:54:28;99645.38;;;9.29;100.00
14232;BME280;7200;52.194;9.900;2023-04-15T01:56:54;99642.91;;;9.24;100.00
14232;BME280;7200;52.194;9.900;2023-04-15T01:59:19;99665.13;;;9.38;100.00
14232;BME280;7200;52.194;9.900;2023-04-15T02:01:44;99632.66;;;9.18;100.00
14232;BME280;7200;52.194;9.900;2023-04-15T02:04:10;99643.84;;;9.23;100.00
14232;BME280;7200;52.194;9.900;2023-04-15T02:06:44;99686.97;;;9.60;100.00
14232;BME280;7200;52.194;9.900;2023-04-15T02:09:10;99644.97;;;9.18;100.00
14232;BME280;7200;52.194;9.900;2023-04-15T02:11:35;99652.16;;;9.14;100.00
14232;BME280;7200;52.194;9.900;2023-04-15T02:14:03;99663.31;;;9.19;100.00
14232;BME280;7200;52.194;9.900;2023-04-15T02:16:31;99665.53;;;9.28;100.00
14232;BME280;7200;52.194;9.900;2023-04-15T02:18:57;99648.56;;;9.15;100.00
14232;BME280;7200;52.194;9.900;2023-04-15T02:21:22;99643.69;;;9.26;100.00
14232;BME280;7200;52.194;9.900;2023-04-15T02:23:47;99645.88;;;9.16;100.00
14232;BME280;7200;52.194;9.900;2023-04-15T02:26:13;99652.72;;;9.21;100.00
14232;BME280;7200;52.194;9.900;2023-04-15T02:28:38;99662.34;;;9.22;100.00
14232;BME280;7200;52.194;9.900;2023-04-15T02:31:07;99676.66;;;9.55;100.00
14232;BME280;7200;52.194;9.900;2023-04-15T02:33:33;99644.31;;;9.33;100.00
14232;BME280;7200;52.194;9.900;2023-04-15T02:35:59;99653.16;;;9.30;100.00
14232;BME280;7200;52.194;9.900;2023-04-15T02:38:24;99670.34;;;9.39;100.00
14232;BME280;7200;52.194;9.900;2023-04-15T02:40:49;99679.28;;;9.55;100.00
14232;BME280;7200;52.194;9.900;2023-04-15T02:43:15;99661.19;;;9.48;100.00
14232;BME280;7200;52.194;9.900;2023-04-15T02:45:44;99682.03;;;9.52;100.00
14232;BME280;7200;52.194;9.900;2023-04-15T02:48:11;99662.91;;;9.49;100.00
14232;BME280;7200;52.194;9.900;2023-04-15T02:50:36;99662.38;;;9.41;100.00
14232;BME280;7200;52.194;9.900;2023-04-15T02:53:05;99663.06;;;9.25;100.00
14232;BME280;7200;52.194;9.900;2023-04-15T02:55:31;99688.59;;;9.44;100.00
14232;BME280;7200;52.194;9.900;2023-04-15T02:57:56;99671.34;;;9.37;100.00
14232;BME280;7200;52.194;9.900;2023-04-15T03:00:25;99676.63;;;9.37;100.00
14232;BME280;7200;52.194;9.900;2023-04-15T03:02:57;99663.06;;;9.25;100.00
14232;BME280;7200;52.194;9.900;2023-04-15T03:05:22;99670.28;;;9.20;100.00
14232;BME280;7200;52.194;9.900;2023-04-15T03:07:49;99680.09;;;9.16;100.00
14232;BME280;7200;52.194;9.900;2023-04-15T03:10:15;99701.44;;;9.31;100.00
14232;BME280;7200;52.194;9.900;2023-04-15T03:12:40;99685.47;;;9.13;100.00
14232;BME280;7200;52.194;9.900;2023-04-15T03:15:06;99694.38;;;9.11;100.00
14232;BME280;7200;52.194;9.900;2023-04-15T03:17:32;99694.25;;;9.14;100.00
14232;BME280;7200;52.194;9.900;2023-04-15T03:19:57;99699.63;;;9.11;100.00
14232;BME280;7200;52.194;9.900;2023-04-15T03:22:22;99710.22;;;9.30;100.00
14232;BME280;7200;52.194;9.900;2023-04-15T03:24:48;99700.56;;;9.10;100.00
14232;BME280;7200;52.194;9.900;2023-04-15T03:27:13;99688.75;;;8.98;100.00
14232;BME280;7200;52.194;9.900;2023-04-15T03:29:38;99719.78;;;9.12;100.00
14232;BME280;7200;52.194;9.900;2023-04-15T03:32:03;99708.75;;;9.02;100.00
14232;BME280;7200;52.194;9.900;2023-04-15T03:34:29;99724.41;;;9.05;100.00
14232;BME280;7200;52.194;9.900;2023-04-15T03:36:55;99715.94;;;8.99;100.00
14232;BME280;7200;52.194;9.900;2023-04-15T03:39:20;99701.75;;;8.81;100.00
14232;BME280;7200;52.194;9.900;2023-04-15T03:41:45;99721.59;;;8.89;100.00
14232;BME280;7200;52.194;9.900;2023-04-15T03:44:11;99715.69;;;8.83;100.00
14232;BME280;7200;52.194;9.900;2023-04-15T03:46:36;99726.47;;;8.99;100.00
14232;BME280;7200;52.194;9.900;2023-04-15T03:49:01;99720.22;;;8.79;100.00
14232;BME280;7200;52.194;9.900;2023-04-15T03:51:27;99716.59;;;8.61;100.00
14232;BME280;7200;52.194;9.900;2023-04-15T03:53:52;99734.06;;;8.84;100.00
14232;BME280;7200;52.194;9.900;2023-04-15T03:56:17;99741.16;;;8.82;100.00
14232;BME280;7200;52.194;9.900;2023-04-15T03:58:43;99742.75;;;8.86;100.00
14232;BME280;7200;52.194;9.900;2023-04-15T04:01:08;99735.75;;;8.85;100.00
14232;BME280;7200;52.194;9.900;2023-04-15T04:03:33;99735.69;;;8.87;100.00
14232;BME280;7200;52.194;9.900;2023-04-15T04:05:59;99726.78;;;8.69;100.00
14232;BME280;7200;52.194;9.900;2023-04-15T04:08:24;99731.19;;;8.68;100.00
14232;BME280;7200;52.194;9.900;2023-04-15T04:10:49;99724.41;;;8.63;100.00
14232;BME280;7200;52.194;9.900;2023-04-15T04:13:15;99708.16;;;8.29;100.00
14232;BME280;7200;52.194;9.900;2023-04-15T04:15:40;99738.09;;;8.49;100.00
14232;BME280;7200;52.194;9.900;2023-04-15T04:18:06;99749.63;;;8.45;100.00
14232;BME280;7200;52.194;9.900;2023-04-15T04:20:31;99742.06;;;8.35;100.00
14232;BME280;7200;52.194;9.900;2023-04-15T04:22:57;99739.97;;;8.22;100.00
14232;BME280;7200;52.194;9.900;2023-04-15T04:25:22;99760.25;;;8.42;100.00
14232;BME280;7200;52.194;9.900;2023-04-15T04:27:48;99746.94;;;8.23;100.00
14232;BME280;7200;52.194;9.900;2023-04-15T04:30:13;99769.81;;;8.44;100.00
14232;BME280;7200;52.194;9.900;2023-04-15T04:32:39;99757.50;;;8.21;100.00
14232;BME280;7200;52.194;9.900;2023-04-15T04:35:04;99755.75;;;8.22;100.00
14232;BME280;7200;52.194;9.900;2023-04-15T04:37:30;99774.53;;;8.34;100.00
14232;BME280;7200;52.194;9.900;2023-04-15T04:39:55;99761.91;;;8.21;100.00
14232;BME280;7200;52.194;9.900;2023-04-15T04:42:21;99769.91;;;8.17;100.00
14232;BME280;7200;52.194;9.900;2023-04-15T04:44:46;99770.53;;;8.24;100.00
14232;BME280;7200;52.194;9.900;2023-04-15T04:47:11;99773.94;;;8.26;100.00
14232;BME280;7200;52.194;9.900;2023-04-15T04:49:37;99755.81;;;8.20;100.00
14232;BME280;7200;52.194;9.900;2023-04-15T04:52:02;99757.63;;;8.18;100.00
14232;BME280;7200;52.194;9.900;2023-04-15T04:54:27;99763.50;;;8.25;100.00
14232;BME280;7200;52.194;9.900;2023-04-15T04:56:54;99763.50;;;8.25;100.00
14232;BME280;7200;52.194;9.900;2023-04-15T04:59:22;99764.13;;;8.31;100.00
14232;BME280;7200;52.194;9.900;2023-04-15T05:01:47;99772.75;;;8.35;100.00
14232;BME280;7200;52.194;9.900;2023-04-15T05:04:12;99773.41;;;8.18;100.00
14232;BME280;7200;52.194;9.900;2023-04-15T05:06:38;99768.69;;;8.26;100.00
14232;BME280;7200;52.194;9.900;2023-04-15T05:09:03;99760.22;;;8.19;100.00
14232;BME280;7200;52.194;9.900;2023-04-15T05:11:28;99761.00;;;8.22;100.00
14232;BME280;7200;52.194;9.900;2023-04-15T05:13:54;99769.97;;;8.16;100.00
14232;BME280;7200;52.194;9.900;2023-04-15T05:16:19;99782.88;;;8.22;100.00
14232;BME280;7200;52.194;9.900;2023-04-15T05:18:44;99788.81;;;8.27;100.00
14232;BME280;7200;52.194;9.900;2023-04-15T05:21:10;99778.66;;;8.18;100.00
14232;BME280;7200;52.194;9.900;2023-04-15T05:23:35;99784.91;;;8.37;100.00
14232;BME280;7200;52.194;9.900;2023-04-15T05:26:02;99780.47;;;8.16;100.00
14232;BME280;7200;52.194;9.900;2023-04-15T05:28:27;99780.25;;;8.22;100.00
14232;BME280;7200;52.194;9.900;2023-04-15T05:30:53;99787.22;;;8.23;100.00
14232;BME280;7200;52.194;9.900;2023-04-15T05:33:18;99783.06;;;8.17;100.00
14232;BME280;7200;52.194;9.900;2023-04-15T05:35:43;99795.66;;;8.31;100.00
14232;BME280;7200;52.194;9.900;2023-04-15T05:38:08;99778.00;;;8.11;100.00
14232;BME280;7200;52.194;9.900;2023-04-15T05:40:34;99748.78;;;8.88;100.00
14232;BME280;7200;52.194;9.900;2023-04-15T05:42:59;99744.69;;;9.03;100.00
14232;BME280;7200;52.194;9.900;2023-04-15T05:45:25;99981.91;;;12.53;100.00
14232;BME280;7200;52.194;9.900;2023-04-15T05:47:51;99715.78;;;10.42;100.00
14232;BME280;7200;52.194;9.900;2023-04-15T05:50:18;99695.72;;;10.57;100.00
14232;BME280;7200;52.194;9.900;2023-04-15T05:52:43;99668.16;;;10.45;100.00
14232;BME280;7200;52.194;9.900;2023-04-15T05:55:10;99653.94;;;10.30;100.00
14232;BME280;7200;52.194;9.900;2023-04-15T05:57:35;99670.28;;;10.37;100.00
14232;BME280;7200;52.194;9.900;2023-04-15T06:00:02;99657.03;;;10.20;100.00
14232;BME280;7200;52.194;9.900;2023-04-15T06:02:29;99654.84;;;10.10;100.00
14232;BME280;7200;52.194;9.900;2023-04-15T06:04:55;99670.59;;;10.12;100.00
14232;BME280;7200;52.194;9.900;2023-04-15T06:07:21;99667.66;;;9.99;100.00
14232;BME280;7200;52.194;9.900;2023-04-15T06:09:46;99666.94;;;9.96;100.00
14232;BME280;7200;52.194;9.900;2023-04-15T06:12:12;99646.22;;;9.69;100.00
14232;BME280;7200;52.194;9.900;2023-04-15T06:14:38;99687.09;;;10.16;100.00
14232;BME280;7200;52.194;9.900;2023-04-15T06:17:04;99698.84;;;10.08;100.00
14232;BME280;7200;52.194;9.900;2023-04-15T06:19:29;99686.91;;;10.39;100.00
14232;BME280;7200;52.194;9.900;2023-04-15T06:21:57;99648.19;;;9.83;100.00
14232;BME280;7200;52.194;9.900;2023-04-15T06:24:22;99677.78;;;9.89;100.00
14232;BME280;7200;52.194;9.900;2023-04-15T06:26:47;99671.13;;;9.81;100.00
14232;BME280;7200;52.194;9.900;2023-04-15T06:29:13;99674.72;;;9.80;100.00
14232;BME280;7200;52.194;9.900;2023-04-15T06:31:38;99703.72;;;10.18;100.00
14232;BME280;7200;52.194;9.900;2023-04-15T06:34:03;99672.25;;;9.75;100.00
14232;BME280;7200;52.194;9.900;2023-04-15T06:36:29;99663.50;;;9.35;100.00
14232;BME280;7200;52.194;9.900;2023-04-15T06:38:54;99680.03;;;9.39;100.00
14232;BME280;7200;52.194;9.900;2023-04-15T06:41:21;99698.63;;;9.54;100.00
14232;BME280;7200;52.194;9.900;2023-04-15T06:43:46;99712.47;;;9.60;100.00
14232;BME280;7200;52.194;9.900;2023-04-15T06:46:11;99719.50;;;9.59;100.00
14232;BME280;7200;52.194;9.900;2023-04-15T06:48:37;99696.16;;;9.51;100.00
14232;BME280;7200;52.194;9.900;2023-04-15T06:51:02;99700.94;;;9.42;100.00
14232;BME280;7200;52.194;9.900;2023-04-15T06:53:28;99724.28;;;9.70;100.00
14232;BME280;7200;52.194;9.900;2023-04-15T06:55:53;99706.63;;;9.32;100.00
14232;BME280;7200;52.194;9.900;2023-04-15T06:58:18;99719.13;;;9.27;100.00
14232;BME280;7200;52.194;9.900;2023-04-15T07:00:44;99731.09;;;9.34;100.00
14232;BME280;7200;52.194;9.900;2023-04-15T07:03:11;99732.41;;;9.24;100.00
14232;BME280;7200;52.194;9.900;2023-04-15T07:05:37;99751.28;;;9.34;100.00
14232;BME280;7200;52.194;9.900;2023-04-15T07:08:02;99742.81;;;9.27;100.00
14232;BME280;7200;52.194;9.900;2023-04-15T07:10:28;99749.38;;;9.38;100.00
14232;BME280;7200;52.194;9.900;2023-04-15T07:12:53;99752.50;;;9.27;100.00
14232;BME280;7200;52.194;9.900;2023-04-15T07:15:19;99772.91;;;9.42;100.00
14232;BME280;7200;52.194;9.900;2023-04-15T07:17:44;99758.72;;;9.24;100.00
14232;BME280;7200;52.194;9.900;2023-04-15T07:20:10;99771.19;;;9.82;100.00
14232;BME280;7200;52.194;9.900;2023-04-15T07:22:35;99755.00;;;9.50;100.00
14232;BME280;7200;52.194;9.900;2023-04-15T07:25:00;99789.63;;;9.82;100.00
14232;BME280;7200;52.194;9.900;2023-04-15T07:27:26;99766.31;;;9.52;100.00
14232;BME280;7200;52.194;9.900;2023-04-15T07:29:51;99765.97;;;9.60;100.00
14232;BME280;7200;52.194;9.900;2023-04-15T07:32:17;99809.06;;;10.00;100.00
14232;BME280;7200;52.194;9.900;2023-04-15T07:34:43;99764.63;;;9.72;100.00
14232;BME280;7200;52.194;9.900;2023-04-15T07:37:09;99777.63;;;9.75;100.00
14232;BME280;7200;52.194;9.900;2023-04-15T07:39:35;99753.34;;;9.48;100.00
14232;BME280;7200;52.194;9.900;2023-04-15T07:42:01;99787.72;;;9.86;100.00
14232;BME280;7200;52.194;9.900;2023-04-15T07:44:26;99809.09;;;9.99;100.00
14232;BME280;7200;52.194;9.900;2023-04-15T07:46:52;99787.84;;;9.83;100.00
14232;BME280;7200;52.194;9.900;2023-04-15T07:49:17;99804.25;;;9.89;100.00
14232;BME280;7200;52.194;9.900;2023-04-15T07:51:43;99800.28;;;9.79;100.00
14232;BME280;7200;52.194;9.900;2023-04-15T07:54:09;99829.78;;;10.08;100.00
14232;BME280;7200;52.194;9.900;2023-04-15T07:56:34;99809.06;;;10.00;100.00
14232;BME280;7200;52.194;9.900;2023-04-15T07:58:59;99818.78;;;9.98;100.00
14232;BME280;7200;52.194;9.900;2023-04-15T08:01:26;99824.19;;;10.16;100.00
14232;BME280;7200;52.194;9.900;2023-04-15T08:03:51;99786.06;;;9.83;100.00
14232;BME280;7200;52.194;9.900;2023-04-15T08:06:17;99810.97;;;9.97;100.00
14232;BME280;7200;52.194;9.900;2023-04-15T08:08:42;99805.47;;;10.01;100.00
14232;BME280;7200;52.194;9.900;2023-04-15T08:11:08;99797.47;;;9.84;100.00
14232;BME280;7200;52.194;9.900;2023-04-15T08:13:33;99807.66;;;9.91;100.00
14232;BME280;7200;52.194;9.900;2023-04-15T08:16:23;99834.38;;;10.23;100.00
14232;BME280;7200;52.194;9.900;2023-04-15T08:18:50;99804.91;;;9.94;100.00
14232;BME280;7200;52.194;9.900;2023-04-15T08:21:16;99816.13;;;9.98;100.00
14232;BME280;7200;52.194;9.900;2023-04-15T08:23:42;99827.56;;;9.99;100.00
14232;BME280;7200;52.194;9.900;2023-04-15T08:26:08;99806.44;;;9.80;100.00
14232;BME280;7200;52.194;9.900;2023-04-15T08:28:34;99818.38;;;9.87;100.00
14232;BME280;7200;52.194;9.900;2023-04-15T08:30:59;99813.59;;;9.76;100.00
14232;BME280;7200;52.194;9.900;2023-04-15T08:33:25;99813.22;;;9.85;100.00
14232;BME280;7200;52.194;9.900;2023-04-15T08:35:50;99791.69;;;9.55;100.00
14232;BME280;7200;52.194;9.900;2023-04-15T08:38:16;99817.88;;;9.58;100.00
14232;BME280;7200;52.194;9.900;2023-04-15T08:40:44;99831.50;;;9.68;100.00
14232;BME280;7200;52.194;9.900;2023-04-15T08:43:12;99859.91;;;10.02;100.00
14232;BME280;7200;52.194;9.900;2023-04-15T08:45:40;99838.44;;;9.91;100.00
14232;BME280;7200;52.194;9.900;2023-04-15T08:48:06;99876.03;;;10.36;100.00
14232;BME280;7200;52.194;9.900;2023-04-15T08:50:34;99846.50;;;10.07;100.00
14232;BME280;7200;52.194;9.900;2023-04-15T08:52:59;99829.06;;;9.84;100.00
14232;BME280;7200;52.194;9.900;2023-04-15T08:55:31;99855.16;;;9.90;100.00
14232;BME280;7200;52.194;9.900;2023-04-15T08:57:58;99860.03;;;9.99;100.00
14232;BME280;7200;52.194;9.900;2023-04-15T09:00:25;99865.25;;;10.01;100.00
14232;BME280;7200;52.194;9.900;2023-04-15T09:02:51;99920.66;;;10.61;100.00
14232;BME280;7200;52.194;9.900;2023-04-15T09:05:16;99874.25;;;10.76;100.00
14232;BME280;7200;52.194;9.900;2023-04-15T09:07:42;99861.19;;;10.73;100.00
14232;BME280;7200;52.194;9.900;2023-04-15T09:10:08;99878.75;;;10.93;100.00
14232;BME280;7200;52.194;9.900;2023-04-15T09:12:34;99843.63;;;10.71;100.00
14232;BME280;7200;52.194;9.900;2023-04-15T09:15:01;99856.69;;;10.94;100.00
14232;BME280;7200;52.194;9.900;2023-04-15T09:17:26;99847.91;;;10.93;100.00
14232;BME280;7200;52.194;9.900;2023-04-15T09:20:10;99864.28;;;11.19;100.00
14232;BME280;7200;52.194;9.900;2023-04-15T09:22:37;99832.28;;;10.88;100.00
14232;BME280;7200;52.194;9.900;2023-04-15T09:25:03;99789.13;;;10.34;100.00
14232;BME280;7200;52.194;9.900;2023-04-15T09:27:28;99845.69;;;11.03;100.00
14232;BME280;7200;52.194;9.900;2023-04-15T09:29:54;99796.09;;;10.14;100.00
14232;BME280;7200;52.194;9.900;2023-04-15T09:32:20;99824.75;;;10.22;100.00
14232;BME280;7200;52.194;9.900;2023-04-15T09:34:47;99852.56;;;10.29;100.00
14232;BME280;7200;52.194;9.900;2023-04-15T09:37:12;99876.28;;;10.29;100.00
14232;BME280;7200;52.194;9.900;2023-04-15T09:39:50;99881.53;;;10.31;100.00
14232;BME280;7200;52.194;9.900;2023-04-15T09:42:16;99864.97;;;10.07;100.00
14232;BME280;7200;52.194;9.900;2023-04-15T09:44:48;99879.53;;;10.16;100.00
14232;BME280;7200;52.194;9.900;2023-04-15T09:47:30;99884.88;;;10.35;100.00
14232;BME280;7200;52.194;9.900;2023-04-15T09:49:59;99905.63;;;10.42;100.00
14232;BME280;7200;52.194;9.900;2023-04-15T09:52:25;99918.03;;;10.40;100.00
14232;BME280;7200;52.194;9.900;2023-04-15T09:54:52;99906.75;;;10.37;100.00
14232;BME280;7200;52.194;9.900;2023-04-15T09:57:19;99897.38;;;10.50;100.00
14232;BME280;7200;52.194;9.900;2023-04-15T09:59:46;99922.16;;;10.66;100.00
14232;BME280;7200;52.194;9.900;2023-04-15T10:02:12;99945.47;;;11.52;100.00
14232;BME280;7200;52.194;9.900;2023-04-15T10:04:39;99885.41;;;10.62;100.00
14232;BME280;7200;52.194;9.900;2023-04-15T10:07:07;99901.13;;;10.65;100.00
14232;BME280;7200;52.194;9.900;2023-04-15T10:09:35;99911.25;;;10.74;100.00
14232;BME280;7200;52.194;9.900;2023-04-15T10:12:02;99890.31;;;10.50;100.00
14232;BME280;7200;52.194;9.900;2023-04-15T10:14:32;99896.53;;;10.49;100.00
14232;BME280;7200;52.194;9.900;2023-04-15T10:17:00;99897.66;;;10.44;100.00
14232;BME280;7200;52.194;9.900;2023-04-15T10:19:26;99896.94;;;10.40;100.00
14232;BME280;7200;52.194;9.900;2023-04-15T10:21:54;99925.38;;;10.52;100.00
14232;BME280;7200;52.194;9.900;2023-04-15T10:24:23;99914.75;;;10.35;100.00
14232;BME280;7200;52.194;9.900;2023-04-15T10:26:50;99923.28;;;10.20;100.00
14232;BME280;7200;52.194;9.900;2023-04-15T10:29:16;99953.00;;;10.45;100.00
14232;BME280;7200;52.194;9.900;2023-04-15T10:31:42;99958.03;;;10.50;100.00
14232;BME280;7200;52.194;9.900;2023-04-15T10:34:08;99946.50;;;10.32;100.00
14232;BME280;7200;52.194;9.900;2023-04-15T10:36:33;99961.91;;;10.62;100.00
14232;BME280;7200;52.194;9.900;2023-04-15T10:38:59;99940.66;;;10.46;100.00
14232;BME280;7200;52.194;9.900;2023-04-15T10:41:26;99960.22;;;10.61;100.00
14232;BME280;7200;52.194;9.900;2023-04-15T10:43:59;99978.22;;;10.90;100.00
14232;BME280;7200;52.194;9.900;2023-04-15T10:46:35;99972.16;;;10.88;100.00
14232;BME280;7200;52.194;9.900;2023-04-15T10:49:07;99936.16;;;10.48;100.00
14232;BME280;7200;52.194;9.900;2023-04-15T10:51:33;99952.22;;;10.62;100.00
14232;BME280;7200;52.194;9.900;2023-04-15T10:54:01;99959.44;;;10.59;100.00
14232;BME280;7200;52.194;9.900;2023-04-15T10:56:29;99954.28;;;10.56;100.00
14232;BME280;7200;52.194;9.900;2023-04-15T10:58:58;99999.06;;;11.73;100.00
14232;BME280;7200;52.194;9.900;2023-04-15T11:01:49;99977.25;;;11.86;100.00
14232;BME280;7200;52.194;9.900;2023-04-15T11:04:54;99951.81;;;11.66;100.00
14232;BME280;7200;52.194;9.900;2023-04-15T11:07:36;99918.66;;;11.42;100.00
14232;BME280;7200;52.194;9.900;2023-04-15T11:12:46;99952.72;;;11.65;100.00
14232;BME280;7200;52.194;9.900;2023-04-15T11:17:55;99919.31;;;11.09;100.00
14232;BME280;7200;52.194;9.900;2023-04-15T11:20:20;99952.81;;;11.45;100.00
14232;BME280;7200;52.194;9.900;2023-04-15T11:22:50;99974.66;;;11.48;100.00
14232;BME280;7200;52.194;9.900;2023-04-15T11:27:49;99958.34;;;11.40;100.00
14232;BME280;7200;52.194;9.900;2023-04-15T11:30:23;99996.91;;;11.81;100.00
14232;BME280;7200;52.194;9.900;2023-04-15T11:32:49;99929.69;;;11.14;100.00
14232;BME280;7200;52.194;9.900;2023-04-15T11:35:15;99979.25;;;11.45;100.00
14232;BME280;7200;52.194;9.900;2023-04-15T11:37:41;99996.91;;;11.81;100.00
14232;BME280;7200;52.194;9.900;2023-04-15T11:40:07;99962.81;;;11.57;100.00
14232;BME280;7200;52.194;9.900;2023-04-15T11:42:33;99970.88;;;11.54;100.00
14232;BME280;7200;52.194;9.900;2023-04-15T11:45:09;99983.66;;;11.63;100.00
14232;BME280;7200;52.194;9.900;2023-04-15T11:47:35;100015.63;;;11.95;100.00
14232;BME280;7200;52.194;9.900;2023-04-15T11:50:17;100011.38;;;12.10;100.00
14232;BME280;7200;52.194;9.900;2023-04-15T11:52:57;100035.22;;;12.62;100.00
14232;BME280;7200;52.194;9.900;2023-04-15T11:55:24;99960.44;;;12.06;100.00
14232;BME280;7200;52.194;9.900;2023-04-15T12:00:33;99948.63;;;11.41;100.00
14232;BME280;7200;52.194;9.900;2023-04-15T12:06:23;100001.13;;;11.85;100.00
14232;BME280;7200;52.194;9.900;2023-04-15T12:11:15;100002.69;;;11.89;100.00
14232;BME280;7200;52.194;9.900;2023-04-15T12:13:49;100024.69;;;12.26;100.00
14232;BME280;7200;52.194;9.900;2023-04-15T12:16:18;100019.56;;;12.05;100.00
14232;BME280;7200;52.194;9.900;2023-04-15T12:18:45;100032.78;;;12.23;100.00
14232;BME280;7200;52.194;9.900;2023-04-15T12:21:11;99999.13;;;11.90;100.00
14232;BME280;7200;52.194;9.900;2023-04-15T12:23:37;100030.47;;;11.98;100.00
14232;BME280;7200;52.194;9.900;2023-04-15T12:26:06;100029.63;;;11.97;100.00
14232;BME280;7200;52.194;9.900;2023-04-15T12:28:33;100040.38;;;11.94;100.00
14232;BME280;7200;52.194;9.900;2023-04-15T12:31:06;100044.22;;;12.06;100.00
14232;BME280;7200;52.194;9.900;2023-04-15T12:33:32;100031.91;;;12.05;100.00
14232;BME280;7200;52.194;9.900;2023-04-15T12:35:58;100015.94;;;11.70;100.00
14232;BME280;7200;52.194;9.900;2023-04-15T12:38:23;100026.94;;;11.80;100.00
14232;BME280;7200;52.194;9.900;2023-04-15T12:40:48;100067.84;;;12.09;100.00
14232;BME280;7200;52.194;9.900;2023-04-15T12:43:13;100060.34;;;12.19;100.00
14232;BME280;7200;52.194;9.900;2023-04-15T12:45:39;100044.13;;;12.07;100.00
14232;BME280;7200;52.194;9.900;2023-04-15T12:48:04;100055.56;;;12.08;100.00
14232;BME280;7200;52.194;9.900;2023-04-15T12:50:30;100053.44;;;11.97;100.00
14232;BME280;7200;52.194;9.900;2023-04-15T12:52:55;100058.41;;;11.84;100.00
14232;BME280;7200;52.194;9.900;2023-04-15T12:55:21;100070.78;;;12.03;100.00
14232;BME280;7200;52.194;9.900;2023-04-15T12:57:46;100064.63;;;11.83;100.00
14232;BME280;7200;52.194;9.900;2023-04-15T13:00:13;100088.50;;;12.01;100.00
14232;BME280;7200;52.194;9.900;2023-04-15T13:02:38;100102.81;;;12.33;100.00
14232;BME280;7200;52.194;9.900;2023-04-15T13:05:04;100069.34;;;11.96;100.00
14232;BME280;7200;52.194;9.900;2023-04-15T13:07:29;100084.56;;;12.63;100.00
14232;BME280;7200;52.194;9.900;2023-04-15T13:09:54;100070.53;;;12.26;100.00
14232;BME280;7200;52.194;9.900;2023-04-15T13:12:20;100110.00;;;13.01;100.00
14232;BME280;7200;52.194;9.900;2023-04-15T13:14:46;100080.19;;;12.80;100.00
14232;BME280;7200;52.194;9.900;2023-04-15T13:17:11;100071.22;;;12.82;100.00